Time;durP1;ratioP1;P1;durP2;ratioP2;P2;SDS_P1;SDS_P2;PMS_P1;PMS_P2;Temp;Humidity;BMP_temperature;BMP_pressure;BME280_temperature;BME280_humidity;BME280_pressure;Samples;Min_cycle;Max_cycle;Signal;HPM_P1;HPM_P2
2023/11/30 00:01:26;;;;;;;1.20;0.80;;;2.10;99.90;;;;;;5134822;28;20852;-54
2023/11/30 00:03:53;;;;;;;2.30;0.90;;;2.10;99.90;;;;;;5135091;28;20469;-55
2023/11/30 00:06:20;;;;;;;1.02;0.70;;;2.00;99.90;;;;;;5134269;28;20840;-56
2023/11/30 00:08:49;;;;;;;2.90;0.90;;;2.00;99.90;;;;;;5135583;28;20509;-54
2023/11/30 00:11:16;;;;;;;2.72;0.80;;;2.00;99.90;;;;;;5135298;28;20418;-54
2023/11/30 00:13:45;;;;;;;1.45;0.80;;;2.10;99.90;;;;;;5134617;27;20453;-54
2023/11/30 00:16:12;;;;;;;2.13;0.80;;;2.10;99.90;;;;;;5134547;28;20829;-53
2023/11/30 00:18:39;;;;;;;2.08;0.80;;;2.20;99.90;;;;;;5134837;28;20490;-54
2023/11/30 00:21:07;;;;;;;2.25;0.80;;;2.20;99.90;;;;;;5135384;28;20418;-54
2023/11/30 00:23:35;;;;;;;1.50;0.80;;;2.20;99.90;;;;;;5134369;28;20922;-51
2023/11/30 00:26:02;;;;;;;1.70;0.70;;;2.20;99.90;;;;;;5135184;28;20454;-52
2023/11/30 00:28:29;;;;;;;1.40;0.80;;;2.20;99.90;;;;;;5133352;27;20422;-52
2023/11/30 00:30:58;;;;;;;1.10;0.75;;;2.20;99.90;;;;;;5134087;28;20525;-54
2023/11/30 00:33:25;;;;;;;1.77;0.80;;;2.30;99.90;;;;;;5135039;28;20432;-51
2023/11/30 00:35:52;;;;;;;1.50;0.90;;;2.30;99.90;;;;;;5134321;27;20790;-55
2023/11/30 00:38:19;;;;;;;1.60;0.80;;;2.30;99.90;;;;;;5136974;27;20422;-51
2023/11/30 00:40:46;;;;;;;1.80;0.90;;;2.30;99.90;;;;;;5138071;27;20446;-53
2023/11/30 00:43:13;;;;;;;1.80;0.90;;;2.30;99.90;;;;;;5138149;27;20513;-53
2023/11/30 00:45:40;;;;;;;1.70;0.90;;;2.20;99.90;;;;;;5138748;27;20430;-50
2023/11/30 00:48:09;;;;;;;2.10;0.80;;;2.20;99.90;;;;;;5138432;27;20542;-54
2023/11/30 00:50:36;;;;;;;1.30;0.80;;;2.20;99.90;;;;;;5138092;27;20418;-54
2023/11/30 00:53:04;;;;;;;2.57;0.83;;;2.20;99.90;;;;;;5138024;27;20454;-55
2023/11/30 00:55:31;;;;;;;1.70;0.90;;;2.20;99.90;;;;;;5137176;27;20411;-53
2023/11/30 00:57:58;;;;;;;1.88;0.80;;;2.30;99.90;;;;;;5138205;27;20425;-54
2023/11/30 01:00:25;;;;;;;1.73;0.80;;;2.40;99.90;;;;;;5137936;27;20422;-52
2023/11/30 01:02:52;;;;;;;2.30;0.90;;;2.30;99.90;;;;;;5137512;27;20437;-51
2023/11/30 01:05:21;;;;;;;1.50;0.80;;;2.30;99.90;;;;;;5136886;27;20526;-51
2023/11/30 01:07:48;;;;;;;2.80;0.83;;;2.30;99.90;;;;;;5137363;27;20501;-54
2023/11/30 01:10:15;;;;;;;1.60;0.80;;;2.30;99.90;;;;;;5137255;27;20406;-51
2023/11/30 01:12:42;;;;;;;1.88;0.80;;;2.20;99.90;;;;;;5138108;27;20468;-54
2023/11/30 01:15:10;;;;;;;1.63;0.80;;;2.20;99.90;;;;;;5138681;27;20519;-53
2023/11/30 01:17:37;;;;;;;2.50;1.00;;;2.20;99.90;;;;;;5138379;27;20423;-49
2023/11/30 01:20:05;;;;;;;1.80;0.90;;;2.20;99.90;;;;;;5137710;27;20442;-49
2023/11/30 01:22:34;;;;;;;1.70;0.90;;;2.10;99.90;;;;;;5137982;27;20429;-53
2023/11/30 01:25:01;;;;;;;2.00;0.90;;;2.10;99.90;;;;;;5138411;27;20427;-53
2023/11/30 01:27:29;;;;;;;1.60;0.80;;;2.10;99.90;;;;;;5136583;27;20425;-52
2023/11/30 01:29:56;;;;;;;2.78;0.98;;;2.10;99.90;;;;;;5137781;27;20873;-49
2023/11/30 01:32:23;;;;;;;2.15;0.80;;;2.00;99.90;;;;;;5136427;27;20424;-51
2023/11/30 01:34:50;;;;;;;2.13;0.90;;;2.00;99.90;;;;;;5137221;27;20883;-54
2023/11/30 01:37:17;;;;;;;2.75;1.10;;;2.00;99.90;;;;;;5137544;27;20414;-54
2023/11/30 01:39:47;;;;;;;1.60;0.80;;;1.90;99.90;;;;;;5137186;27;20423;-54
2023/11/30 01:42:14;;;;;;;2.00;1.00;;;1.90;99.90;;;;;;5137914;27;20426;-56
2023/11/30 01:44:41;;;;;;;2.60;1.00;;;1.80;1.00;;;;;;5137108;27;20828;-53
2023/11/30 01:47:09;;;;;;;1.80;1.02;;;1.80;1.00;;;;;;5136354;27;20517;-55
2023/11/30 01:49:36;;;;;;;1.70;0.90;;;1.90;1.00;;;;;;5136308;27;20493;-52
2023/11/30 01:52:04;;;;;;;2.13;0.90;;;1.90;1.00;;;;;;5137174;27;20425;-54
2023/11/30 01:54:33;;;;;;;1.65;1.10;;;1.90;1.00;;;;;;5137576;27;20418;-47
2023/11/30 01:57:02;;;;;;;1.40;0.80;;;2.00;99.90;;;;;;5137157;27;20813;-50
2023/11/30 01:59:30;;;;;;;1.58;0.93;;;2.00;99.90;;;;;;5136876;27;20422;-54
2023/11/30 02:01:57;;;;;;;1.97;1.00;;;1.90;99.90;;;;;;5137243;27;20508;-49
2023/11/30 02:04:30;;;;;;;1.70;1.10;;;1.90;99.90;;;;;;5136577;27;20740;-52
2023/11/30 02:06:57;;;;;;;1.90;0.90;;;1.90;99.90;;;;;;5136101;27;20709;-50
2023/11/30 02:09:25;;;;;;;2.40;0.90;;;1.90;99.90;;;;;;5135613;27;20505;-48
2023/11/30 02:11:52;;;;;;;1.65;0.90;;;1.90;99.90;;;;;;5135447;27;20419;-54
2023/11/30 02:14:20;;;;;;;1.35;0.90;;;2.00;99.90;;;;;;5135102;27;20426;-50
2023/11/30 02:16:47;;;;;;;1.65;0.95;;;1.90;99.90;;;;;;5134610;27;20444;-52
2023/11/30 02:19:15;;;;;;;1.73;0.90;;;1.90;99.90;;;;;;5134094;27;20905;-50
2023/11/30 02:21:50;;;;;;;1.50;0.90;;;1.80;99.90;;;;;;5135222;27;20425;-53
2023/11/30 02:24:17;;;;;;;1.67;0.70;;;1.80;99.90;;;;;;5135295;27;20422;-49
2023/11/30 02:26:45;;;;;;;1.63;1.00;;;1.80;99.90;;;;;;5134839;27;20454;-49
2023/11/30 02:29:15;;;;;;;2.00;0.80;;;1.80;99.90;;;;;;5134509;27;20461;-53
2023/11/30 02:31:42;;;;;;;2.05;0.93;;;1.80;99.90;;;;;;5135124;27;20422;-50
2023/11/30 02:34:10;;;;;;;3.10;0.90;;;1.80;99.90;;;;;;5135227;27;20771;-52
2023/11/30 02:36:37;;;;;;;1.38;0.80;;;1.80;99.90;;;;;;5134778;27;20828;-52
2023/11/30 02:39:06;;;;;;;1.48;0.80;;;1.80;99.90;;;;;;5135872;27;20865;-53
2023/11/30 02:41:33;;;;;;;1.75;0.85;;;1.80;99.90;;;;;;5136103;27;20853;-54
2023/11/30 02:44:00;;;;;;;1.65;0.70;;;1.70;99.90;;;;;;5136247;27;20422;-48
2023/11/30 02:46:29;;;;;;;1.70;0.80;;;1.70;99.90;;;;;;5133812;27;20413;-52
2023/11/30 02:48:56;;;;;;;2.00;0.80;;;1.70;99.90;;;;;;5133377;27;20726;-49
2023/11/30 02:51:23;;;;;;;2.10;0.80;;;1.70;99.90;;;;;;5133288;27;20785;-47
2023/11/30 02:53:51;;;;;;;1.70;0.80;;;1.70;99.90;;;;;;5134668;27;20424;-49
2023/11/30 02:56:22;;;;;;;1.90;0.90;;;1.60;99.90;;;;;;5135188;27;20415;-49
2023/11/30 02:58:49;;;;;;;1.20;0.80;;;1.70;99.90;;;;;;5134868;27;20406;-48
2023/11/30 03:01:17;;;;;;;1.90;0.80;;;1.70;99.90;;;;;;5134575;27;20411;-53
2023/11/30 03:03:44;;;;;;;1.40;0.80;;;1.70;99.90;;;;;;5135971;27;20435;-48
2023/11/30 03:06:12;;;;;;;2.00;0.82;;;1.70;99.90;;;;;;5116185;28;20502;-51
2023/11/30 03:08:39;;;;;;;1.48;0.95;;;1.60;99.90;;;;;;5115329;28;20420;-53
2023/11/30 03:11:06;;;;;;;3.10;0.95;;;1.60;99.90;;;;;;5115220;28;20431;-48
2023/11/30 03:13:35;;;;;;;1.50;0.90;;;1.60;99.90;;;;;;5115072;28;20415;-51
2023/11/30 03:16:02;;;;;;;2.90;1.00;;;1.60;99.90;;;;;;5114597;28;20438;-52
2023/11/30 03:18:29;;;;;;;1.40;0.90;;;1.60;99.90;;;;;;5115674;28;20900;-52
2023/11/30 03:20:56;;;;;;;2.30;1.00;;;1.60;99.90;;;;;;5115639;28;20495;-53
2023/11/30 03:23:24;;;;;;;2.20;1.00;;;1.60;99.90;;;;;;5115444;28;20438;-48
2023/11/30 03:25:51;;;;;;;2.35;0.90;;;1.70;99.90;;;;;;5114683;28;20529;-54
2023/11/30 03:28:18;;;;;;;1.23;0.80;;;1.60;99.90;;;;;;5115226;28;20449;-52
2023/11/30 03:30:46;;;;;;;1.38;0.80;;;1.70;99.90;;;;;;5114804;28;20514;-52
2023/11/30 03:33:14;;;;;;;2.45;1.00;;;1.60;99.90;;;;;;5115237;28;20511;-53
2023/11/30 03:35:41;;;;;;;2.03;0.80;;;1.60;99.90;;;;;;5114461;28;20426;-53
2023/11/30 03:38:08;;;;;;;1.40;0.90;;;1.60;1.00;;;;;;5114085;28;20430;-54
2023/11/30 03:40:35;;;;;;;1.52;0.90;;;1.70;1.00;;;;;;5115338;28;20715;-55
2023/11/30 03:43:03;;;;;;;1.60;0.80;;;1.70;1.00;;;;;;5115282;28;20730;-54
2023/11/30 03:45:32;;;;;;;1.50;0.98;;;1.60;99.90;;;;;;5114164;28;20544;-49
2023/11/30 03:48:01;;;;;;;2.50;0.90;;;1.60;1.00;;;;;;5114232;28;20849;-50
2023/11/30 03:50:28;;;;;;;1.60;1.00;;;1.60;1.00;;;;;;5114469;28;20862;-51
2023/11/30 03:52:55;;;;;;;1.55;0.80;;;1.60;1.00;;;;;;5112587;28;20439;-53
2023/11/30 03:55:22;;;;;;;1.60;0.90;;;1.60;99.90;;;;;;5108048;28;20893;-52
2023/11/30 03:57:49;;;;;;;2.22;1.00;;;1.60;1.00;;;;;;5114000;28;20420;-53
2023/11/30 04:00:17;;;;;;;1.75;0.90;;;1.70;1.00;;;;;;5113883;28;20415;-51
2023/11/30 04:02:44;;;;;;;2.40;1.00;;;1.60;1.00;;;;;;5104843;28;20437;-50
2023/11/30 04:05:14;;;;;;;1.50;0.80;;;1.60;1.00;;;;;;5126546;28;20540;-50
2023/11/30 04:07:43;;;;;;;1.10;1.00;;;1.70;1.00;;;;;;5134877;28;20428;-53
2023/11/30 04:10:12;;;;;;;3.08;0.90;;;1.70;1.00;;;;;;5135978;28;20433;-52
2023/11/30 04:12:39;;;;;;;2.88;1.00;;;1.80;1.00;;;;;;5138785;27;20433;-47
2023/11/30 04:15:07;;;;;;;2.50;1.00;;;1.80;1.00;;;;;;5139124;27;20505;-51
2023/11/30 04:17:36;;;;;;;2.20;0.85;;;1.80;1.00;;;;;;5139697;27;20421;-48
2023/11/30 04:20:04;;;;;;;1.67;0.90;;;1.80;1.00;;;;;;5138730;27;20475;-55
2023/11/30 04:22:33;;;;;;;3.22;1.10;;;1.80;1.00;;;;;;5136693;27;20762;-51
2023/11/30 04:25:00;;;;;;;1.30;0.90;;;1.80;1.00;;;;;;5138189;27;20509;-53
2023/11/30 04:27:27;;;;;;;1.27;0.80;;;1.80;1.00;;;;;;5137903;27;20763;-52
2023/11/30 04:29:54;;;;;;;1.60;0.90;;;1.90;99.90;;;;;;5138610;27;20422;-49
2023/11/30 04:32:21;;;;;;;1.90;0.80;;;1.90;99.90;;;;;;5138574;27;20518;-52
2023/11/30 04:34:49;;;;;;;2.10;1.08;;;1.90;99.90;;;;;;5138161;27;20893;-53
2023/11/30 04:37:16;;;;;;;2.30;0.90;;;1.80;1.00;;;;;;5138022;27;20417;-49
2023/11/30 04:39:44;;;;;;;2.50;1.00;;;1.90;1.00;;;;;;5138625;27;20418;-51
2023/11/30 04:42:12;;;;;;;1.40;0.90;;;1.90;99.90;;;;;;5138381;27;20592;-48
2023/11/30 04:44:39;;;;;;;1.42;0.90;;;1.90;99.90;;;;;;5138973;27;20491;-50
2023/11/30 04:47:06;;;;;;;1.45;0.90;;;1.90;99.90;;;;;;5138494;27;20457;-48
2023/11/30 04:49:33;;;;;;;2.15;1.00;;;1.90;99.90;;;;;;5137629;27;20445;-52
2023/11/30 04:52:03;;;;;;;2.20;1.00;;;1.90;99.90;;;;;;5138246;27;20508;-49
2023/11/30 04:54:30;;;;;;;1.57;1.00;;;1.90;99.90;;;;;;5138909;27;20422;-50
2023/11/30 04:56:59;;;;;;;2.92;1.00;;;1.80;99.90;;;;;;5138262;27;20729;-50
2023/11/30 04:59:26;;;;;;;2.50;1.00;;;1.90;99.90;;;;;;5138460;27;20422;-51
2023/11/30 05:01:53;;;;;;;1.70;1.10;;;1.80;99.90;;;;;;5138945;27;20721;-51
2023/11/30 05:04:20;;;;;;;1.60;0.80;;;1.90;99.90;;;;;;5138690;27;20512;-52
2023/11/30 05:06:47;;;;;;;1.70;1.00;;;1.80;99.90;;;;;;5137154;27;20403;-51
2023/11/30 05:09:16;;;;;;;2.20;1.00;;;1.80;99.90;;;;;;5137149;27;20425;-49
2023/11/30 05:11:43;;;;;;;1.40;0.90;;;1.80;99.90;;;;;;5136540;27;20422;-51
2023/11/30 05:14:12;;;;;;;1.40;0.90;;;1.80;99.90;;;;;;5136542;27;20494;-53
2023/11/30 05:16:39;;;;;;;1.42;0.93;;;1.60;99.90;;;;;;5136354;27;20453;-53
2023/11/30 05:19:06;;;;;;;1.70;1.00;;;1.60;99.90;;;;;;5136676;27;20465;-51
2023/11/30 05:21:33;;;;;;;1.50;1.00;;;1.60;99.90;;;;;;5135921;27;20410;-52
2023/11/30 05:24:01;;;;;;;3.83;1.20;;;1.50;99.90;;;;;;5135376;27;20434;-48
2023/11/30 05:26:28;;;;;;;1.80;1.00;;;1.50;99.90;;;;;;5136473;27;20509;-52
2023/11/30 05:28:55;;;;;;;1.70;0.90;;;1.50;99.90;;;;;;5137118;27;20415;-50
2023/11/30 05:31:24;;;;;;;2.30;1.00;;;1.50;99.90;;;;;;5136870;27;20790;-51
2023/11/30 05:33:52;;;;;;;2.42;1.00;;;1.60;99.90;;;;;;5136591;27;20780;-50
2023/11/30 05:36:19;;;;;;;2.00;0.90;;;1.50;99.90;;;;;;5136498;27;20810;-48
2023/11/30 05:38:46;;;;;;;1.40;0.90;;;1.50;99.90;;;;;;5134519;27;20765;-51
2023/11/30 05:41:13;;;;;;;2.50;1.00;;;1.50;99.90;;;;;;5136106;27;21162;-53
2023/11/30 05:43:40;;;;;;;3.33;1.00;;;1.40;99.90;;;;;;5135388;27;20417;-50
2023/11/30 05:46:08;;;;;;;1.80;1.10;;;1.40;99.90;;;;;;5135591;27;20700;-54
2023/11/30 05:48:36;;;;;;;1.95;0.90;;;1.40;99.90;;;;;;5135041;27;20415;-51
2023/11/30 05:51:04;;;;;;;2.28;1.00;;;1.40;99.90;;;;;;5136465;27;20422;-51
2023/11/30 05:53:31;;;;;;;1.92;0.90;;;1.40;99.90;;;;;;5136059;27;20422;-49
2023/11/30 05:56:01;;;;;;;1.80;1.00;;;1.40;99.90;;;;;;5135739;27;20399;-53
2023/11/30 05:58:29;;;;;;;3.10;1.00;;;1.40;99.90;;;;;;5136228;27;20463;-53
2023/11/30 06:00:57;;;;;;;3.47;1.10;;;1.40;99.90;;;;;;5134988;27;20756;-48
2023/11/30 06:03:24;;;;;;;1.70;1.17;;;1.40;99.90;;;;;;5135501;27;20775;-54
2023/11/30 06:05:53;;;;;;;2.70;1.00;;;1.50;99.90;;;;;;5135248;27;20517;-52
2023/11/30 06:08:20;;;;;;;1.85;1.10;;;1.50;99.90;;;;;;5134568;27;20781;-50
2023/11/30 06:10:47;;;;;;;2.40;1.00;;;1.50;99.90;;;;;;5135873;27;20410;-54
2023/11/30 06:13:15;;;;;;;2.45;1.00;;;1.50;99.90;;;;;;5135521;27;20592;-49
2023/11/30 06:15:42;;;;;;;2.30;1.20;;;1.50;99.90;;;;;;5135404;27;20425;-51
2023/11/30 06:18:10;;;;;;;4.18;1.40;;;1.40;99.90;;;;;;5134835;27;20518;-50
2023/11/30 06:20:37;;;;;;;1.43;1.00;;;1.40;99.90;;;;;;5134321;27;20461;-52
2023/11/30 06:23:06;;;;;;;1.88;1.20;;;1.40;99.90;;;;;;5131343;27;20661;-51
2023/11/30 06:25:33;;;;;;;1.75;1.10;;;1.40;99.90;;;;;;5108407;28;20425;-53
2023/11/30 06:28:01;;;;;;;1.90;1.00;;;1.40;99.90;;;;;;5113838;28;20507;-52
2023/11/30 06:30:28;;;;;;;3.78;1.40;;;1.40;99.90;;;;;;5112396;28;20424;-53
2023/11/30 06:32:56;;;;;;;2.42;1.20;;;1.40;99.90;;;;;;5093441;28;20516;-53
2023/11/30 06:35:23;;;;;;;1.60;1.02;;;1.40;99.90;;;;;;5094043;28;20516;-52
2023/11/30 06:37:50;;;;;;;2.60;1.10;;;1.40;99.90;;;;;;5094769;28;20764;-51
2023/11/30 06:40:19;;;;;;;3.80;1.30;;;1.50;99.90;;;;;;5093974;28;20888;-53
2023/11/30 06:42:46;;;;;;;2.65;1.00;;;1.50;99.90;;;;;;5093476;28;20453;-49
2023/11/30 06:45:13;;;;;;;1.88;1.20;;;1.50;99.90;;;;;;5091577;28;20439;-50
2023/11/30 06:47:40;;;;;;;2.80;1.13;;;1.50;99.90;;;;;;5110082;28;20426;-53
2023/11/30 06:50:08;;;;;;;1.80;1.02;;;1.50;99.90;;;;;;5112375;28;20428;-48
2023/11/30 06:52:35;;;;;;;2.40;1.38;;;1.50;99.90;;;;;;5112494;28;20803;-54
2023/11/30 06:55:03;;;;;;;3.10;1.08;;;1.50;99.90;;;;;;5113602;28;20416;-56
2023/11/30 06:57:32;;;;;;;3.30;1.20;;;1.50;99.90;;;;;;5113927;28;20426;-56
2023/11/30 06:59:59;;;;;;;1.42;0.90;;;1.50;99.90;;;;;;5111505;28;20412;-57
2023/11/30 07:02:26;;;;;;;3.45;1.30;;;1.60;99.90;;;;;;5112684;28;20425;-53
2023/11/30 07:04:53;;;;;;;2.57;1.00;;;1.60;99.90;;;;;;5109351;28;20792;-48
2023/11/30 07:07:21;;;;;;;2.50;1.20;;;1.70;99.90;;;;;;5113743;28;20415;-55
2023/11/30 07:09:48;;;;;;;3.75;1.45;;;1.70;99.90;;;;;;5110601;28;20452;-54
2023/11/30 07:12:15;;;;;;;2.42;1.20;;;1.70;99.90;;;;;;5101460;28;20504;-50
2023/11/30 07:14:44;;;;;;;2.75;1.30;;;1.70;99.90;;;;;;5091759;28;20430;-52
2023/11/30 07:17:11;;;;;;;1.85;1.10;;;1.70;99.90;;;;;;5091505;28;20422;-51
2023/11/30 07:19:40;;;;;;;1.60;1.10;;;1.70;99.90;;;;;;5091285;28;20421;-50
2023/11/30 07:22:07;;;;;;;2.30;1.20;;;1.60;99.90;;;;;;5089736;28;20406;-53
2023/11/30 07:24:35;;;;;;;2.30;1.20;;;1.60;99.90;;;;;;5092847;28;20528;-54
2023/11/30 07:27:02;;;;;;;2.75;1.30;;;1.60;99.90;;;;;;5099688;28;20434;-55
2023/11/30 07:29:33;;;;;;;2.70;1.20;;;1.80;99.90;;;;;;5093152;28;20499;-54
2023/11/30 07:32:02;;;;;;;2.70;1.33;;;1.80;99.90;;;;;;5099324;28;20434;-54
2023/11/30 07:34:29;;;;;;;2.90;1.30;;;1.90;99.90;;;;;;5099810;28;20424;-54
2023/11/30 07:36:56;;;;;;;1.90;1.25;;;2.00;99.90;;;;;;5101888;28;20489;-53
2023/11/30 07:39:23;;;;;;;3.00;1.30;;;2.10;99.90;;;;;;5089656;28;20528;-53
2023/11/30 07:41:50;;;;;;;2.65;1.23;;;2.10;99.90;;;;;;5097362;28;20431;-53
2023/11/30 07:44:18;;;;;;;3.45;1.33;;;2.20;99.90;;;;;;5095483;28;20429;-54
2023/11/30 07:46:45;;;;;;;2.70;1.20;;;2.20;99.90;;;;;;5094168;28;20455;-53
2023/11/30 07:49:13;;;;;;;3.33;1.30;;;2.10;99.90;;;;;;5100503;28;20505;-52
2023/11/30 07:51:41;;;;;;;2.78;1.30;;;2.10;99.90;;;;;;5111780;28;20523;-48
2023/11/30 07:54:08;;;;;;;2.95;1.50;;;2.30;99.90;;;;;;5103563;28;20428;-53
2023/11/30 07:56:35;;;;;;;2.80;1.40;;;2.30;99.90;;;;;;5096033;28;20560;-55
2023/11/30 07:59:02;;;;;;;3.10;1.40;;;2.20;99.90;;;;;;5106183;28;20436;-54
2023/11/30 08:01:29;;;;;;;2.50;1.60;;;2.00;99.90;;;;;;5105382;28;20788;-55
2023/11/30 08:03:57;;;;;;;2.80;1.50;;;2.00;1.00;;;;;;5103400;28;20495;-55
2023/11/30 08:06:25;;;;;;;2.92;1.40;;;2.00;99.90;;;;;;5104639;28;20920;-55
2023/11/30 08:08:53;;;;;;;3.28;1.65;;;2.20;99.90;;;;;;5097137;28;20512;-55
2023/11/30 08:11:21;;;;;;;3.42;1.80;;;2.40;99.90;;;;;;5089269;28;20512;-55
2023/11/30 08:13:49;;;;;;;3.60;1.60;;;2.40;99.90;;;;;;5096388;28;20493;-55
2023/11/30 08:16:16;;;;;;;3.15;1.40;;;2.40;99.90;;;;;;5105967;28;20452;-54
2023/11/30 08:18:44;;;;;;;3.60;1.50;;;2.30;99.90;;;;;;5106464;28;20451;-54
2023/11/30 08:21:11;;;;;;;3.80;1.50;;;2.40;99.90;;;;;;5105252;28;20707;-55
2023/11/30 08:23:42;;;;;;;3.10;1.30;;;2.30;99.90;;;;;;5087629;28;20564;-54
2023/11/30 08:26:11;;;;;;;3.83;1.70;;;2.30;99.90;;;;;;5087386;28;20429;-54
2023/11/30 08:28:38;;;;;;;3.13;1.40;;;2.30;99.90;;;;;;5087807;28;20513;-52
2023/11/30 08:31:08;;;;;;;3.10;1.42;;;2.50;99.90;;;;;;5089561;28;20436;-55
2023/11/30 08:33:35;;;;;;;3.78;1.45;;;2.50;99.90;;;;;;5102238;28;20441;-51
2023/11/30 08:36:04;;;;;;;4.53;2.00;;;2.60;99.90;;;;;;5093647;28;20429;-52
2023/11/30 08:38:33;;;;;;;4.18;1.42;;;2.70;99.90;;;;;;5103369;28;20540;-55
2023/11/30 08:41:01;;;;;;;4.97;1.80;;;2.70;99.90;;;;;;5110847;28;20413;-52
2023/11/30 08:43:29;;;;;;;5.35;1.83;;;2.60;99.90;;;;;;5111022;28;20894;-53
2023/11/30 08:45:56;;;;;;;2.92;1.90;;;2.60;99.90;;;;;;5107931;28;20523;-55
2023/11/30 08:48:23;;;;;;;4.57;1.60;;;2.50;99.90;;;;;;5088792;28;20433;-50
2023/11/30 08:50:50;;;;;;;3.80;1.90;;;2.50;99.90;;;;;;5090507;28;20783;-50
2023/11/30 08:53:18;;;;;;;3.53;1.77;;;2.50;99.90;;;;;;5089173;28;20748;-52
2023/11/30 08:55:45;;;;;;;4.30;1.75;;;2.50;99.90;;;;;;5092066;28;20418;-51
2023/11/30 08:58:14;;;;;;;3.47;2.45;;;2.50;99.90;;;;;;5108494;28;20408;-53
2023/11/30 09:00:42;;;;;;;3.75;1.80;;;2.50;99.90;;;;;;5108827;28;20420;-54
2023/11/30 09:03:09;;;;;;;5.30;2.00;;;2.50;99.90;;;;;;5094781;28;20494;-53
2023/11/30 09:05:36;;;;;;;4.07;1.90;;;2.60;99.90;;;;;;5111046;28;20947;-52
2023/11/30 09:08:04;;;;;;;4.72;2.25;;;2.70;99.90;;;;;;5099219;28;20527;-54
2023/11/30 09:10:31;;;;;;;5.57;1.80;;;2.70;99.90;;;;;;5099950;28;20595;-54
2023/11/30 09:12:58;;;;;;;4.10;1.75;;;2.70;99.90;;;;;;5112989;28;20428;-52
2023/11/30 09:15:27;;;;;;;4.00;1.80;;;2.70;99.90;;;;;;5096869;28;20432;-50
2023/11/30 09:17:56;;;;;;;2.97;1.70;;;2.70;99.90;;;;;;5092253;28;20425;-54
2023/11/30 09:20:23;;;;;;;3.50;1.60;;;2.70;99.90;;;;;;5093131;28;20444;-50
2023/11/30 09:22:51;;;;;;;4.45;1.77;;;2.80;99.90;;;;;;5105263;28;20793;-56
2023/11/30 09:25:18;;;;;;;5.13;2.15;;;2.80;99.90;;;;;;5106099;28;20515;-54
2023/11/30 09:27:46;;;;;;;5.40;1.83;;;2.90;99.90;;;;;;5095644;28;20884;-56
2023/11/30 09:30:14;;;;;;;5.25;1.88;;;2.80;99.90;;;;;;5103992;28;20438;-55
2023/11/30 09:32:43;;;;;;;4.10;1.90;;;2.90;99.90;;;;;;5096811;28;20426;-54
2023/11/30 09:35:11;;;;;;;3.45;1.92;;;2.80;99.90;;;;;;5093972;28;20521;-56
2023/11/30 09:37:38;;;;;;;2.70;1.67;;;2.80;99.90;;;;;;5099688;28;20422;-56
2023/11/30 09:40:08;;;;;;;4.07;1.80;;;3.00;99.90;;;;;;5103038;28;21696;-52
2023/11/30 09:42:36;;;;;;;4.93;2.75;;;3.10;99.90;;;;;;5092627;28;20434;-56
2023/11/30 09:45:07;;;;;;;4.50;1.98;;;3.10;99.90;;;;;;5103183;28;20452;-52
2023/11/30 09:47:34;;;;;;;5.75;2.47;;;3.20;99.90;;;;;;5095092;28;20956;-52
2023/11/30 09:50:03;;;;;;;3.70;1.60;;;3.10;99.90;;;;;;5102083;28;20923;-54
2023/11/30 09:52:32;;;;;;;4.40;1.95;;;3.30;99.90;;;;;;5095982;28;20532;-54
2023/11/30 09:55:00;;;;;;;4.88;2.60;;;3.20;99.90;;;;;;5097195;28;20420;-55
2023/11/30 09:57:27;;;;;;;3.80;2.20;;;3.20;99.90;;;;;;5096995;28;20537;-56
2023/11/30 09:59:55;;;;;;;5.43;2.15;;;3.20;99.90;;;;;;5104573;28;20424;-55
2023/11/30 10:02:23;;;;;;;5.07;2.15;;;3.20;99.90;;;;;;5110793;28;20439;-55
2023/11/30 10:04:51;;;;;;;3.15;2.08;;;3.20;99.90;;;;;;5109882;28;20423;-57
2023/11/30 10:07:20;;;;;;;6.13;2.83;;;3.10;99.90;;;;;;5095635;28;20775;-57
2023/11/30 10:09:48;;;;;;;5.10;2.60;;;3.00;99.90;;;;;;5112105;28;20489;-58
2023/11/30 10:12:15;;;;;;;3.45;2.53;;;2.90;99.90;;;;;;5110635;28;20423;-55
2023/11/30 10:14:42;;;;;;;4.10;2.53;;;2.80;99.90;;;;;;5103777;28;20524;-56
2023/11/30 10:17:10;;;;;;;7.68;2.90;;;2.70;99.90;;;;;;5103793;28;20516;-55
2023/11/30 10:19:38;;;;;;;5.57;2.60;;;2.80;99.90;;;;;;5100467;28;20499;-57
2023/11/30 10:22:05;;;;;;;4.40;2.45;;;2.90;99.90;;;;;;5110450;28;20424;-54
2023/11/30 10:24:34;;;;;;;3.70;2.00;;;3.00;99.90;;;;;;5108962;28;20460;-57
2023/11/30 10:27:10;;;;;;;6.50;2.15;;;3.20;99.90;;;;;;5107149;28;20440;-57
2023/11/30 10:29:43;;;;;;;3.95;2.20;;;3.30;99.90;;;;;;5109027;28;20431;-58
2023/11/30 10:32:14;;;;;;;5.23;2.77;;;3.40;99.90;;;;;;5099870;28;21004;-58
2023/11/30 10:34:47;;;;;;;5.03;2.40;;;3.40;99.90;;;;;;5098005;28;20421;-57
2023/11/30 10:37:19;;;;;;;3.30;2.47;;;3.40;99.90;;;;;;5090718;28;21099;-55
2023/11/30 10:39:54;;;;;;;5.93;2.50;;;3.40;99.90;;;;;;5090975;28;20487;-55
2023/11/30 10:42:24;;;;;;;4.07;1.70;;;3.40;99.90;;;;;;5101216;28;20541;-57
2023/11/30 10:44:54;;;;;;;3.83;2.53;;;3.50;99.90;;;;;;5107686;28;20446;-55
2023/11/30 10:47:24;;;;;;;3.22;2.30;;;3.60;99.90;;;;;;5108487;28;20456;-57
2023/11/30 10:49:53;;;;;;;3.70;2.35;;;3.60;99.90;;;;;;5108734;27;20870;-56
2023/11/30 10:52:22;;;;;;;4.03;2.13;;;3.80;99.90;;;;;;5110330;28;20549;-56
2023/11/30 10:54:57;;;;;;;5.63;2.53;;;3.90;99.90;;;;;;5110090;27;20428;-57
2023/11/30 10:57:24;;;;;;;4.15;2.00;;;4.00;99.90;;;;;;5112813;27;20428;-55
2023/11/30 10:59:58;;;;;;;4.63;2.70;;;4.10;99.90;;;;;;5100752;28;20523;-58
2023/11/30 11:02:25;;;;;;;4.78;2.58;;;4.10;99.90;;;;;;5104614;28;20428;-57
2023/11/30 11:04:53;;;;;;;5.60;2.50;;;4.00;99.90;;;;;;5107254;27;20423;-57
2023/11/30 11:07:21;;;;;;;3.10;2.58;;;4.00;99.90;;;;;;5099153;28;20452;-56
2023/11/30 11:09:55;;;;;;;5.28;2.30;;;4.10;99.90;;;;;;5102787;28;20739;-57
2023/11/30 11:12:24;;;;;;;4.00;2.00;;;4.20;99.90;;;;;;5087628;28;20424;-54
2023/11/30 11:15:04;;;;;;;6.05;2.92;;;4.30;99.90;;;;;;5086026;28;20815;-61
2023/11/30 11:17:32;;;;;;;5.05;3.00;;;4.30;99.90;;;;;;5084337;28;20796;-62
2023/11/30 11:20:01;;;;;;;4.93;2.30;;;4.40;99.90;;;;;;5104586;27;20659;-63
2023/11/30 11:22:30;;;;;;;3.35;2.08;;;4.40;99.90;;;;;;5087428;28;20461;-62
2023/11/30 11:25:00;;;;;;;5.30;2.05;;;4.50;99.90;;;;;;5101738;28;20526;-62
2023/11/30 11:27:29;;;;;;;3.67;2.40;;;4.30;99.90;;;;;;5102502;28;20464;-61
2023/11/30 11:29:58;;;;;;;4.32;1.98;;;4.20;99.90;;;;;;5099187;27;20698;-60
2023/11/30 11:32:26;;;;;;;3.60;2.00;;;4.10;99.90;;;;;;5102930;28;20436;-60
2023/11/30 11:34:54;;;;;;;4.47;2.50;;;4.30;99.90;;;;;;5097614;28;20526;-60
2023/11/30 11:37:21;;;;;;;5.43;2.30;;;4.30;99.90;;;;;;5106306;28;20436;-60
2023/11/30 11:39:51;;;;;;;5.40;2.20;;;4.30;99.90;;;;;;5103941;28;20438;-60
2023/11/30 11:42:20;;;;;;;5.03;2.45;;;4.30;99.90;;;;;;5102922;28;20488;-62
2023/11/30 11:44:48;;;;;;;5.10;2.40;;;4.30;99.90;;;;;;5103237;28;20440;-60
2023/11/30 11:47:15;;;;;;;5.15;2.72;;;4.30;99.90;;;;;;5106552;28;20428;-60
2023/11/30 11:49:43;;;;;;;3.80;2.38;;;4.40;99.90;;;;;;5101997;28;20416;-60
2023/11/30 11:52:10;;;;;;;7.00;2.60;;;4.50;99.90;;;;;;5106150;28;20424;-60
2023/11/30 11:54:37;;;;;;;4.82;3.35;;;4.50;99.90;;;;;;5089138;28;20418;-60
2023/11/30 11:57:05;;;;;;;4.97;2.30;;;4.40;99.90;;;;;;5088103;28;20476;-58
2023/11/30 11:59:34;;;;;;;3.35;2.00;;;4.50;99.90;;;;;;5105674;28;20439;-59
2023/11/30 12:02:01;;;;;;;4.60;2.00;;;4.80;99.90;;;;;;5102587;28;20436;-59
2023/11/30 12:04:29;;;;;;;6.60;2.33;;;4.80;99.90;;;;;;5095700;28;20607;-59
2023/11/30 12:06:57;;;;;;;6.35;4.13;;;4.80;99.90;;;;;;5109974;28;20475;-59
2023/11/30 12:09:24;;;;;;;6.10;2.72;;;4.80;99.90;;;;;;5102985;28;20531;-61
2023/11/30 12:11:56;;;;;;;5.88;3.20;;;4.70;99.90;;;;;;5101124;28;20437;-61
2023/11/30 12:14:23;;;;;;;6.10;2.72;;;4.60;99.90;;;;;;5103796;28;20428;-60
2023/11/30 12:16:52;;;;;;;4.18;2.25;;;4.60;99.90;;;;;;5118155;28;20418;-61
2023/11/30 12:19:19;;;;;;;7.07;2.80;;;4.60;99.90;;;;;;5101132;28;20743;-60
2023/11/30 12:21:46;;;;;;;4.63;2.15;;;4.60;99.90;;;;;;5104497;28;20753;-61
2023/11/30 12:24:14;;;;;;;3.00;1.70;;;4.60;99.90;;;;;;5109570;28;20519;-61
2023/11/30 12:26:42;;;;;;;4.40;2.15;;;4.50;99.90;;;;;;5098900;28;20439;-59
2023/11/30 12:29:10;;;;;;;4.10;2.05;;;4.40;99.90;;;;;;5094846;28;20432;-58
2023/11/30 12:31:37;;;;;;;4.93;2.33;;;4.50;99.90;;;;;;5097051;28;20432;-57
2023/11/30 12:34:06;;;;;;;4.18;2.10;;;4.50;99.90;;;;;;5113707;27;20432;-57
2023/11/30 12:36:33;;;;;;;4.00;2.15;;;4.50;99.90;;;;;;5106906;28;20430;-57
2023/11/30 12:39:00;;;;;;;5.80;2.23;;;4.60;99.90;;;;;;5111931;28;20948;-57
2023/11/30 12:41:27;;;;;;;4.82;1.98;;;4.50;99.90;;;;;;5108629;28;20523;-57
2023/11/30 12:43:55;;;;;;;4.25;2.20;;;4.50;99.90;;;;;;5102268;28;20544;-57
2023/11/30 12:46:23;;;;;;;3.75;2.17;;;4.40;99.90;;;;;;5102907;27;20429;-57
2023/11/30 12:48:50;;;;;;;5.33;2.17;;;4.30;99.90;;;;;;5130051;27;20512;-57
2023/11/30 12:51:19;;;;;;;4.68;2.35;;;4.30;99.90;;;;;;5102247;28;20511;-58
2023/11/30 12:53:47;;;;;;;4.88;2.63;;;4.30;99.90;;;;;;5109784;28;20432;-58
2023/11/30 12:56:14;;;;;;;4.70;2.20;;;4.30;99.90;;;;;;5108708;27;20557;-57
2023/11/30 12:58:41;;;;;;;3.92;1.90;;;4.30;99.90;;;;;;5093597;28;20414;-58
2023/11/30 13:01:08;;;;;;;3.00;1.80;;;4.40;99.90;;;;;;5106122;27;20461;-58